PWSweather.com
Personal Weather Stations
Station Observations
OBSERWACJEMETEO
Skórowo, SkorowoPL 76-230

SkórowoSkorowoPL 76-230

Lat: 54.5030556, Lon: 17.5277777

Elevation: 77

Station Type: WH2080

http://obserwacjemeteo.eu/

High Low Average
Temperature 68.2°F20.1°F 47.8°F8.8°F 54.9°F12.7°F
Dew Point 56.4°F13.6°F 45.1°F7.3°F 50.7°F10.4°F
Winds 4.5 mph -7.2 mph - Calm Calm 1.7 mph 2.7 mph
Wind Gusts 8.3 mph13.4 mph -- 3.6 mph5.8 mph
Humidity 93% 65% 86%
Pressure 29.73 in1006.80 in 29.64 in1003.70 in -
Precipitation 2.56 in65.00 in - -
Hour Temp Dew Point Humidity Winds Wind Gusts Pressure Precip Precip Rate Daily Precip Total
12:00 AM 49.8°F9.9°C 47.0°F8.3°C 90% Calm Calm -- 29.72 in1006.4 mb 0.00 in0.0 mm 0.00 in0.0 mm 0.00 in0.0 mm
12:10 AM 49.1°F9.5°C 46.3°F7.9°C 90% Calm Calm -- 29.71 in1006.1 mb 0.00 in0.0 mm 0.00 in0.0 mm 0.00 in0.0 mm
12:20 AM 49.1°F9.5°C 46.3°F7.9°C 90% Calm Calm -- 29.71 in1006.1 mb 0.00 in0.0 mm 0.00 in0.0 mm 0.00 in0.0 mm
12:30 AM 48.7°F9.3°C 45.9°F7.7°C 90% Calm Calm -- 29.71 in1006.1 mb 0.00 in0.0 mm 0.00 in0.0 mm 0.00 in0.0 mm
12:40 AM 48.4°F9.1°C 45.6°F7.6°C 90% Calm Calm -- 29.71 in1006.1 mb 0.00 in0.0 mm 0.00 in0.0 mm 0.00 in0.0 mm
12:50 AM 48.4°F9.1°C 45.6°F7.6°C 90% Calm Calm -- 29.71 in1006.1 mb 0.00 in0.0 mm 0.00 in0.0 mm 0.00 in0.0 mm
01:00 AM 48.9°F9.4°C 46.1°F7.8°C 90% Calm Calm -- 29.70 in1005.8 mb 0.00 in0.0 mm 0.00 in0.0 mm 0.00 in0.0 mm
01:10 AM 48.6°F9.2°C 45.8°F7.7°C 90% Calm Calm -- 29.70 in1005.8 mb 0.00 in0.0 mm 0.00 in0.0 mm 0.00 in0.0 mm
01:20 AM 48.7°F9.3°C 45.9°F7.7°C 90% Calm Calm -- 29.70 in1005.8 mb 0.00 in0.0 mm 0.00 in0.0 mm 0.00 in0.0 mm
01:30 AM 48.0°F8.9°C 45.2°F7.3°C 90% Calm Calm -- 29.70 in1005.8 mb 0.00 in0.0 mm 0.00 in0.0 mm 0.00 in0.0 mm
01:40 AM 48.6°F9.2°C 45.8°F7.7°C 90% Calm Calm 0.7 mph1.1 kmh 29.69 in1005.4 mb 0.00 in0.0 mm 0.00 in0.0 mm 0.00 in0.0 mm
01:50 AM 47.8°F8.8°C 45.1°F7.3°C 90% Calm Calm -- 29.69 in1005.4 mb 0.00 in0.0 mm 0.00 in0.0 mm 0.00 in0.0 mm
02:00 AM 48.9°F9.4°C 46.1°F7.8°C 90% Calm Calm 0.7 mph1.1 kmh 29.70 in1005.8 mb 0.00 in0.0 mm 0.00 in0.0 mm 0.00 in0.0 mm
02:10 AM 50.7°F10.4°C 48.2°F9.0°C 91% Calm Calm 1.6 mph2.6 kmh 29.69 in1005.4 mb 0.00 in0.0 mm 0.00 in0.0 mm 0.00 in0.0 mm
02:20 AM 51.4°F10.8°C 49.2°F9.6°C 92% 0.7 mph NE1.1 kmh NE 1.6 mph2.6 kmh 29.69 in1005.4 mb 0.00 in0.0 mm 0.00 in0.0 mm 0.00 in0.0 mm
02:30 AM 51.4°F10.8°C 49.2°F9.6°C 92% 0.7 mph NE1.1 kmh NE 1.6 mph2.6 kmh 29.68 in1005.1 mb 0.00 in0.0 mm 0.00 in0.0 mm 0.00 in0.0 mm
02:40 AM 51.3°F10.7°C 49.0°F9.4°C 92% Calm Calm 1.6 mph2.6 kmh 29.68 in1005.1 mb 0.00 in0.0 mm 0.00 in0.0 mm 0.00 in0.0 mm
02:50 AM 51.3°F10.7°C 49.0°F9.4°C 92% 0.7 mph NE1.1 kmh NE 1.6 mph2.6 kmh 29.69 in1005.4 mb 0.00 in0.0 mm 0.00 in0.0 mm 0.00 in0.0 mm
03:00 AM 51.3°F10.7°C 49.0°F9.4°C 92% Calm Calm 1.6 mph2.6 kmh 29.69 in1005.4 mb 0.00 in0.0 mm 0.00 in0.0 mm 0.00 in0.0 mm
03:10 AM 51.4°F10.8°C 49.2°F9.6°C 92% 0.7 mph E1.1 kmh E 2.2 mph3.5 kmh 29.68 in1005.1 mb 0.00 in0.0 mm 0.00 in0.0 mm 0.00 in0.0 mm
03:20 AM 51.1°F10.6°C 48.8°F9.3°C 92% 0.7 mph ENE1.1 kmh ENE 3.1 mph5.0 kmh 29.68 in1005.1 mb 0.00 in0.0 mm 0.00 in0.0 mm 0.00 in0.0 mm
03:30 AM 51.3°F10.7°C 49.0°F9.4°C 92% 0.7 mph NNE1.1 kmh NNE 2.2 mph3.5 kmh 29.69 in1005.4 mb 0.00 in0.0 mm 0.00 in0.0 mm 0.00 in0.0 mm
03:40 AM 51.4°F10.8°C 49.2°F9.6°C 92% 0.7 mph SE1.1 kmh SE 2.2 mph3.5 kmh 29.68 in1005.1 mb 0.00 in0.0 mm 0.00 in0.0 mm 0.00 in0.0 mm
03:50 AM 51.3°F10.7°C 49.0°F9.4°C 92% 0.7 mph ENE1.1 kmh ENE 2.2 mph3.5 kmh 29.68 in1005.1 mb 0.00 in0.0 mm 0.00 in0.0 mm 0.00 in0.0 mm
04:00 AM 51.1°F10.6°C 48.8°F9.3°C 92% 1.6 mph NE2.6 kmh NE 2.2 mph3.5 kmh 29.68 in1005.1 mb 0.00 in0.0 mm 0.00 in0.0 mm 0.00 in0.0 mm
04:10 AM 50.9°F10.5°C 48.7°F9.3°C 92% 0.7 mph NE1.1 kmh NE 2.2 mph3.5 kmh 29.67 in1004.7 mb 0.00 in0.0 mm 0.00 in0.0 mm 0.00 in0.0 mm
04:20 AM 50.9°F10.5°C 48.7°F9.3°C 92% 0.7 mph NE1.1 kmh NE 1.6 mph2.6 kmh 29.67 in1004.7 mb 0.00 in0.0 mm 0.00 in0.0 mm 0.00 in0.0 mm
04:30 AM 51.1°F10.6°C 48.8°F9.3°C 92% 0.7 mph ENE1.1 kmh ENE 2.2 mph3.5 kmh 29.67 in1004.7 mb 0.00 in0.0 mm 0.00 in0.0 mm 0.00 in0.0 mm
04:40 AM 51.1°F10.6°C 48.8°F9.3°C 92% 0.7 mph NE1.1 kmh NE 2.2 mph3.5 kmh 29.66 in1004.4 mb 0.00 in0.0 mm 0.00 in0.0 mm 0.00 in0.0 mm
04:50 AM 50.9°F10.5°C 48.7°F9.3°C 92% 0.7 mph NE1.1 kmh NE 1.6 mph2.6 kmh 29.67 in1004.7 mb 0.00 in0.0 mm 0.00 in0.0 mm 0.00 in0.0 mm
05:00 AM 50.9°F10.5°C 48.7°F9.3°C 92% 0.7 mph NE1.1 kmh NE 2.2 mph3.5 kmh 29.67 in1004.7 mb 0.00 in0.0 mm 0.00 in0.0 mm 0.00 in0.0 mm
05:10 AM 50.7°F10.4°C 48.5°F9.2°C 92% 0.7 mph NE1.1 kmh NE 1.6 mph2.6 kmh 29.66 in1004.4 mb 0.00 in0.0 mm 0.00 in0.0 mm 0.00 in0.0 mm
05:20 AM 50.7°F10.4°C 48.5°F9.2°C 92% 1.6 mph E2.6 kmh E 2.2 mph3.5 kmh 29.65 in1004.1 mb 0.00 in0.0 mm 0.00 in0.0 mm 0.00 in0.0 mm
05:30 AM 50.5°F10.3°C 48.3°F9.1°C 92% 0.7 mph NE1.1 kmh NE 2.2 mph3.5 kmh 29.66 in1004.4 mb 0.00 in0.0 mm 0.00 in0.0 mm 0.00 in0.0 mm
05:40 AM 50.4°F10.2°C 48.1°F8.9°C 92% 0.7 mph NE1.1 kmh NE 2.2 mph3.5 kmh 29.66 in1004.4 mb 0.00 in0.0 mm 0.00 in0.0 mm 0.00 in0.0 mm
05:50 AM 50.2°F10.1°C 47.7°F8.7°C 91% 1.6 mph ENE2.6 kmh ENE 2.2 mph3.5 kmh 29.66 in1004.4 mb 0.00 in0.0 mm 0.00 in0.0 mm 0.00 in0.0 mm
06:00 AM 50.2°F10.1°C 47.7°F8.7°C 91% 0.7 mph NE1.1 kmh NE 2.2 mph3.5 kmh 29.65 in1004.1 mb 0.00 in0.0 mm 0.00 in0.0 mm 0.00 in0.0 mm
06:10 AM 50.5°F10.3°C 48.0°F8.9°C 91% 1.6 mph NE2.6 kmh NE 2.2 mph3.5 kmh 29.65 in1004.1 mb 0.00 in0.0 mm 0.00 in0.0 mm 0.00 in0.0 mm
06:20 AM 51.3°F10.7°C 49.0°F9.4°C 92% 1.6 mph ENE2.6 kmh ENE 3.1 mph5.0 kmh 29.65 in1004.1 mb 0.00 in0.0 mm 0.00 in0.0 mm 0.00 in0.0 mm
06:30 AM 51.4°F10.8°C 49.2°F9.6°C 92% 1.6 mph ENE2.6 kmh ENE 2.2 mph3.5 kmh 29.66 in1004.4 mb 0.00 in0.0 mm 0.00 in0.0 mm 0.00 in0.0 mm
06:40 AM 51.4°F10.8°C 49.2°F9.6°C 92% 0.7 mph ESE1.1 kmh ESE 2.2 mph3.5 kmh 29.65 in1004.1 mb 0.00 in0.0 mm 0.00 in0.0 mm 0.00 in0.0 mm
06:50 AM 51.3°F10.7°C 48.7°F9.3°C 91% 0.7 mph N1.1 kmh N 1.6 mph2.6 kmh 29.65 in1004.1 mb 0.00 in0.0 mm 0.00 in0.0 mm 0.00 in0.0 mm
07:00 AM 51.4°F10.8°C 48.9°F9.4°C 91% Calm Calm 1.6 mph2.6 kmh 29.65 in1004.1 mb 0.00 in0.0 mm 0.00 in0.0 mm 0.00 in0.0 mm
07:10 AM 52.0°F11.1°C 49.4°F9.7°C 91% Calm Calm 2.2 mph3.5 kmh 29.65 in1004.1 mb 0.00 in0.0 mm 0.00 in0.0 mm 0.00 in0.0 mm
07:20 AM 52.2°F11.2°C 49.6°F9.8°C 91% 0.7 mph N1.1 kmh N 2.2 mph3.5 kmh 29.66 in1004.4 mb 0.00 in0.0 mm 0.00 in0.0 mm 0.00 in0.0 mm
07:30 AM 52.5°F11.4°C 50.0°F10.0°C 91% 0.7 mph E1.1 kmh E 2.2 mph3.5 kmh 29.66 in1004.4 mb 0.00 in0.0 mm 0.00 in0.0 mm 0.00 in0.0 mm
07:40 AM 53.1°F11.7°C 50.2°F10.1°C 90% 0.7 mph NE1.1 kmh NE 3.1 mph5.0 kmh 29.66 in1004.4 mb 0.00 in0.0 mm 0.00 in0.0 mm 0.00 in0.0 mm
07:50 AM 53.2°F11.8°C 50.4°F10.2°C 90% 0.7 mph NE1.1 kmh NE 2.2 mph3.5 kmh 29.66 in1004.4 mb 0.00 in0.0 mm 0.00 in0.0 mm 0.00 in0.0 mm
08:00 AM 53.6°F12.0°C 50.4°F10.2°C 89% 0.7 mph NE1.1 kmh NE 3.1 mph5.0 kmh 29.65 in1004.1 mb 0.00 in0.0 mm 0.00 in0.0 mm 0.00 in0.0 mm
08:10 AM 53.8°F12.1°C 50.3°F10.2°C 88% 1.6 mph ENE2.6 kmh ENE 3.1 mph5.0 kmh 29.64 in1003.7 mb 0.00 in0.0 mm 0.00 in0.0 mm 0.00 in0.0 mm
08:20 AM 54.7°F12.6°C 49.9°F9.9°C 84% 3.1 mph NE5.0 kmh NE 4.5 mph7.2 kmh 29.65 in1004.1 mb 0.00 in0.0 mm 0.00 in0.0 mm 0.00 in0.0 mm
08:30 AM 56.1°F13.4°C 51.0°F10.6°C 83% 2.2 mph ENE3.5 kmh ENE 5.4 mph8.7 kmh 29.65 in1004.1 mb 0.00 in0.0 mm 0.00 in0.0 mm 0.00 in0.0 mm
08:40 AM 57.6°F14.2°C 51.4°F10.8°C 80% 3.1 mph NE5.0 kmh NE 4.5 mph7.2 kmh 29.64 in1003.7 mb 0.00 in0.0 mm 0.00 in0.0 mm 0.00 in0.0 mm
08:50 AM 58.1°F14.5°C 50.6°F10.3°C 76% 2.2 mph E3.5 kmh E 4.5 mph7.2 kmh 29.65 in1004.1 mb 0.00 in0.0 mm 0.00 in0.0 mm 0.00 in0.0 mm
09:00 AM 58.6°F14.8°C 51.1°F10.6°C 76% 2.2 mph ENE3.5 kmh ENE 3.8 mph6.1 kmh 29.65 in1004.1 mb 0.00 in0.0 mm 0.00 in0.0 mm 0.00 in0.0 mm
09:10 AM 59.9°F15.5°C 52.0°F11.1°C 75% 1.6 mph ESE2.6 kmh ESE 4.5 mph7.2 kmh 29.65 in1004.1 mb 0.00 in0.0 mm 0.00 in0.0 mm 0.00 in0.0 mm
09:20 AM 60.6°F15.9°C 52.3°F11.3°C 74% 3.1 mph ENE5.0 kmh ENE 5.4 mph8.7 kmh 29.66 in1004.4 mb 0.00 in0.0 mm 0.00 in0.0 mm 0.00 in0.0 mm
09:30 AM 61.5°F16.4°C 52.8°F11.6°C 73% 2.2 mph ENE3.5 kmh ENE 5.4 mph8.7 kmh 29.66 in1004.4 mb 0.00 in0.0 mm 0.00 in0.0 mm 0.00 in0.0 mm
09:40 AM 63.3°F17.4°C 54.5°F12.5°C 73% 3.1 mph E5.0 kmh E 4.5 mph7.2 kmh 29.65 in1004.1 mb 0.00 in0.0 mm 0.00 in0.0 mm 0.00 in0.0 mm
09:50 AM 63.5°F17.5°C 52.8°F11.6°C 68% 2.2 mph E3.5 kmh E 5.4 mph8.7 kmh 29.66 in1004.4 mb 0.00 in0.0 mm 0.00 in0.0 mm 0.00 in0.0 mm
10:00 AM 62.6°F17.0°C 53.1°F11.7°C 71% 2.2 mph E3.5 kmh E 4.5 mph7.2 kmh 29.65 in1004.1 mb 0.00 in0.0 mm 0.00 in0.0 mm 0.00 in0.0 mm
10:10 AM 60.8°F16.0°C 52.5°F11.4°C 74% 2.2 mph E3.5 kmh E 3.8 mph6.1 kmh 29.66 in1004.4 mb 0.00 in0.0 mm 0.00 in0.0 mm 0.00 in0.0 mm
10:20 AM 60.1°F15.6°C 52.5°F11.4°C 76% 3.1 mph ENE5.0 kmh ENE 4.5 mph7.2 kmh 29.66 in1004.4 mb 0.00 in0.0 mm 0.00 in0.0 mm 0.00 in0.0 mm
10:30 AM 60.8°F16.0°C 53.6°F12.0°C 77% 1.6 mph E2.6 kmh E 3.8 mph6.1 kmh 29.66 in1004.4 mb 0.00 in0.0 mm 0.00 in0.0 mm 0.00 in0.0 mm
10:40 AM 66.0°F18.9°C 56.4°F13.6°C 71% 2.2 mph ESE3.5 kmh ESE 3.8 mph6.1 kmh 29.66 in1004.4 mb 0.00 in0.0 mm 0.00 in0.0 mm 0.00 in0.0 mm
10:50 AM 67.6°F19.8°C 56.3°F13.5°C 67% 1.6 mph SE2.6 kmh SE 3.8 mph6.1 kmh 29.66 in1004.4 mb 0.00 in0.0 mm 0.00 in0.0 mm 0.00 in0.0 mm
11:00 AM 68.2°F20.1°C 56.0°F13.3°C 65% 2.2 mph E3.5 kmh E 4.5 mph7.2 kmh 29.66 in1004.4 mb 0.00 in0.0 mm 0.00 in0.0 mm 0.00 in0.0 mm
11:10 AM 65.8°F18.8°C 54.6°F12.6°C 67% 2.2 mph E3.5 kmh E 4.5 mph7.2 kmh 29.66 in1004.4 mb 0.00 in0.0 mm 0.00 in0.0 mm 0.00 in0.0 mm
11:20 AM 64.0°F17.8°C 54.1°F12.3°C 70% 1.6 mph ENE2.6 kmh ENE 3.1 mph5.0 kmh 29.66 in1004.4 mb 0.00 in0.0 mm 0.00 in0.0 mm 0.00 in0.0 mm
11:30 AM 63.0°F17.2°C 53.8°F12.1°C 72% 2.2 mph NE3.5 kmh NE 3.8 mph6.1 kmh 29.65 in1004.1 mb 0.00 in0.0 mm 0.00 in0.0 mm 0.00 in0.0 mm
11:40 AM 63.0°F17.2°C 54.6°F12.6°C 74% Calm Calm 3.8 mph6.1 kmh 29.65 in1004.1 mb 0.00 in0.0 mm 0.00 in0.0 mm 0.00 in0.0 mm
11:50 AM 64.2°F17.9°C 54.6°F12.6°C 71% 0.7 mph ENE1.1 kmh ENE 3.1 mph5.0 kmh 29.66 in1004.4 mb 0.00 in0.0 mm 0.00 in0.0 mm 0.00 in0.0 mm
12:00 PM 64.9°F18.3°C 54.9°F12.7°C 70% 1.6 mph ENE2.6 kmh ENE 4.5 mph7.2 kmh 29.66 in1004.4 mb 0.00 in0.0 mm 0.00 in0.0 mm 0.00 in0.0 mm
12:10 PM 64.4°F18.0°C 54.4°F12.4°C 70% 1.6 mph ESE2.6 kmh ESE 3.8 mph6.1 kmh 29.66 in1004.4 mb 0.00 in0.0 mm 0.00 in0.0 mm 0.00 in0.0 mm
12:20 PM 64.2°F17.9°C 54.2°F12.3°C 70% 1.6 mph ENE2.6 kmh ENE 3.8 mph6.1 kmh 29.66 in1004.4 mb 0.00 in0.0 mm 0.00 in0.0 mm 0.00 in0.0 mm
12:30 PM 65.1°F18.4°C 54.7°F12.6°C 69% 2.2 mph NNE3.5 kmh NNE 4.5 mph7.2 kmh 29.66 in1004.4 mb 0.00 in0.0 mm 0.00 in0.0 mm 0.00 in0.0 mm
12:40 PM 65.5°F18.6°C 54.3°F12.4°C 67% 1.6 mph NE2.6 kmh NE 4.5 mph7.2 kmh 29.65 in1004.1 mb 0.00 in0.0 mm 0.00 in0.0 mm 0.00 in0.0 mm
12:50 PM 64.0°F17.8°C 53.3°F11.8°C 68% 3.8 mph ENE6.1 kmh ENE 6.0 mph9.7 kmh 29.65 in1004.1 mb 0.00 in0.0 mm 0.00 in0.0 mm 0.00 in0.0 mm
01:00 PM 62.4°F16.9°C 53.3°F11.8°C 72% 3.8 mph ENE6.1 kmh ENE 6.0 mph9.7 kmh 29.66 in1004.4 mb 0.00 in0.0 mm 0.00 in0.0 mm 0.00 in0.0 mm
01:10 PM 60.8°F16.0°C 52.1°F11.2°C 73% 3.1 mph ENE5.0 kmh ENE 6.9 mph11.1 kmh 29.66 in1004.4 mb 0.00 in0.0 mm 0.00 in0.0 mm 0.00 in0.0 mm
01:20 PM 59.7°F15.4°C 51.4°F10.8°C 74% 3.8 mph NE6.1 kmh NE 6.9 mph11.1 kmh 29.66 in1004.4 mb 0.00 in0.0 mm 0.00 in0.0 mm 0.00 in0.0 mm
01:30 PM 59.0°F15.0°C 51.5°F10.8°C 76% 3.1 mph ENE5.0 kmh ENE 6.9 mph11.1 kmh 29.67 in1004.7 mb 0.00 in0.0 mm 0.00 in0.0 mm 0.00 in0.0 mm
01:40 PM 57.9°F14.4°C 50.8°F10.4°C 77% 4.5 mph ENE7.2 kmh ENE 6.9 mph11.1 kmh 29.67 in1004.7 mb 0.00 in0.0 mm 0.00 in0.0 mm 0.00 in0.0 mm
01:50 PM 57.9°F14.4°C 51.1°F10.6°C 78% 4.5 mph E7.2 kmh E 7.6 mph12.2 kmh 29.67 in1004.7 mb 0.00 in0.0 mm 0.00 in0.0 mm 0.00 in0.0 mm
02:00 PM 57.6°F14.2°C 50.4°F10.2°C 77% 3.1 mph ENE5.0 kmh ENE 6.9 mph11.1 kmh 29.68 in1005.1 mb 0.00 in0.0 mm 0.00 in0.0 mm 0.00 in0.0 mm
02:10 PM 56.8°F13.8°C 50.4°F10.2°C 79% 3.1 mph ENE5.0 kmh ENE 6.0 mph9.7 kmh 29.68 in1005.1 mb 0.00 in0.0 mm 0.00 in0.0 mm 0.00 in0.0 mm
02:20 PM 56.3°F13.5°C 50.6°F10.3°C 81% 2.2 mph E3.5 kmh E 4.5 mph7.2 kmh 29.68 in1005.1 mb 0.00 in0.0 mm 0.00 in0.0 mm 0.00 in0.0 mm
02:30 PM 55.8°F13.2°C 50.4°F10.2°C 82% 3.8 mph ENE6.1 kmh ENE 8.3 mph13.4 kmh 29.67 in1004.7 mb 0.00 in0.0 mm 0.00 in0.0 mm 0.00 in0.0 mm
02:40 PM 55.6°F13.1°C 50.5°F10.3°C 83% 2.2 mph ENE3.5 kmh ENE 4.5 mph7.2 kmh 29.68 in1005.1 mb 0.00 in0.0 mm 0.00 in0.0 mm 0.00 in0.0 mm
02:50 PM 55.4°F13.0°C 50.7°F10.4°C 84% 2.2 mph ENE3.5 kmh ENE 4.5 mph7.2 kmh 29.68 in1005.1 mb 0.00 in0.0 mm 0.00 in0.0 mm 0.00 in0.0 mm
03:00 PM 55.6°F13.1°C 51.2°F10.7°C 85% 1.6 mph NE2.6 kmh NE 5.4 mph8.7 kmh 29.68 in1005.1 mb 0.00 in0.0 mm 0.00 in0.0 mm 0.00 in0.0 mm
03:10 PM 55.6°F13.1°C 51.2°F10.7°C 85% 3.1 mph E5.0 kmh E 5.4 mph8.7 kmh 29.68 in1005.1 mb 0.00 in0.0 mm 0.00 in0.0 mm 0.00 in0.0 mm
03:20 PM 55.6°F13.1°C 50.8°F10.4°C 84% 4.5 mph E7.2 kmh E 7.6 mph12.2 kmh 29.68 in1005.1 mb 0.00 in0.0 mm 0.00 in0.0 mm 0.00 in0.0 mm
03:30 PM 55.8°F13.2°C 51.0°F10.6°C 84% 3.1 mph ENE5.0 kmh ENE 7.6 mph12.2 kmh 29.68 in1005.1 mb 0.00 in0.0 mm 0.00 in0.0 mm 0.00 in0.0 mm
03:40 PM 55.6°F13.1°C 51.2°F10.7°C 85% 3.1 mph NW5.0 kmh NW 5.4 mph8.7 kmh 29.68 in1005.1 mb 0.00 in0.0 mm 0.00 in0.0 mm 0.00 in0.0 mm
03:50 PM 55.4°F13.0°C 51.0°F10.6°C 85% 2.2 mph ENE3.5 kmh ENE 6.0 mph9.7 kmh 29.68 in1005.1 mb 0.00 in0.0 mm 0.00 in0.0 mm 0.00 in0.0 mm
04:00 PM 55.4°F13.0°C 51.3°F10.7°C 86% 3.1 mph ENE5.0 kmh ENE 4.5 mph7.2 kmh 29.68 in1005.1 mb 0.00 in0.0 mm 0.00 in0.0 mm 0.00 in0.0 mm
04:10 PM 55.4°F13.0°C 51.6°F10.9°C 87% 2.2 mph E3.5 kmh E 4.5 mph7.2 kmh 29.68 in1005.1 mb 0.00 in0.0 mm 0.00 in0.0 mm 0.00 in0.0 mm
04:20 PM 55.4°F13.0°C 51.6°F10.9°C 87% 3.1 mph E5.0 kmh E 3.8 mph6.1 kmh 29.68 in1005.1 mb 0.00 in0.0 mm 0.00 in0.0 mm 0.00 in0.0 mm
04:30 PM 55.6°F13.1°C 52.1°F11.2°C 88% 1.6 mph E2.6 kmh E 3.8 mph6.1 kmh 29.68 in1005.1 mb 0.00 in0.0 mm 0.00 in0.0 mm 0.00 in0.0 mm
04:40 PM 55.6°F13.1°C 52.1°F11.2°C 88% 3.1 mph E5.0 kmh E 3.8 mph6.1 kmh 29.67 in1004.7 mb 0.02 in0.5 mm 0.12 in3.0 mm 0.02 in0.5 mm
04:50 PM 55.6°F13.1°C 52.4°F11.3°C 89% 1.6 mph ENE2.6 kmh ENE 3.8 mph6.1 kmh 29.68 in1005.1 mb 0.06 in1.5 mm 0.24 in6.1 mm 0.06 in1.5 mm
05:00 PM 55.6°F13.1°C 52.4°F11.3°C 89% 1.6 mph E2.6 kmh E 3.1 mph5.0 kmh 29.68 in1005.1 mb 0.07 in1.8 mm 0.01 in0.3 mm 0.07 in1.8 mm
05:10 PM 55.6°F13.1°C 52.4°F11.3°C 89% 2.2 mph NE3.5 kmh NE 3.1 mph5.0 kmh 29.68 in1005.1 mb 0.08 in2.0 mm 0.06 in1.5 mm 0.08 in2.0 mm
05:20 PM 55.6°F13.1°C 52.7°F11.5°C 90% 0.7 mph ENE1.1 kmh ENE 3.1 mph5.0 kmh 29.68 in1005.1 mb 0.11 in2.8 mm 0.18 in4.6 mm 0.11 in2.8 mm
05:30 PM 55.6°F13.1°C 52.7°F11.5°C 90% 1.6 mph ENE2.6 kmh ENE 2.2 mph3.5 kmh 29.68 in1005.1 mb 0.13 in3.3 mm 0.12 in3.0 mm 0.13 in3.3 mm
05:40 PM 55.6°F13.1°C 52.7°F11.5°C 90% 2.2 mph E3.5 kmh E 3.8 mph6.1 kmh 29.68 in1005.1 mb 0.12 in3.0 mm 0.00 in0.0 mm 0.14 in3.6 mm
05:50 PM 55.8°F13.2°C 52.9°F11.6°C 90% 2.2 mph E3.5 kmh E 4.5 mph7.2 kmh 29.69 in1005.4 mb 0.09 in2.3 mm 0.00 in0.0 mm 0.15 in3.8 mm
06:00 PM 55.9°F13.3°C 53.1°F11.7°C 90% 1.6 mph E2.6 kmh E 4.5 mph7.2 kmh 29.68 in1005.1 mb 0.09 in2.3 mm 0.00 in0.0 mm 0.17 in4.3 mm
06:10 PM 55.9°F13.3°C 53.1°F11.7°C 90% 2.2 mph E3.5 kmh E 3.8 mph6.1 kmh 29.68 in1005.1 mb 0.09 in2.3 mm 0.00 in0.0 mm 0.18 in4.6 mm
06:20 PM 55.8°F13.2°C 52.9°F11.6°C 90% 3.1 mph E5.0 kmh E 5.4 mph8.7 kmh 29.68 in1005.1 mb 0.08 in2.0 mm 0.00 in0.0 mm 0.19 in4.8 mm
06:30 PM 55.2°F12.9°C 52.3°F11.3°C 90% 2.2 mph NE3.5 kmh NE 5.4 mph8.7 kmh 29.68 in1005.1 mb 0.07 in1.8 mm 0.00 in0.0 mm 0.20 in5.1 mm
06:40 PM 54.7°F12.6°C 51.5°F10.8°C 89% 4.5 mph E7.2 kmh E 6.0 mph9.7 kmh 29.68 in1005.1 mb 0.07 in1.8 mm 0.00 in0.0 mm 0.21 in5.3 mm
06:50 PM 54.3°F12.4°C 52.1°F11.2°C 92% 3.8 mph E6.1 kmh E 6.0 mph9.7 kmh 29.68 in1005.1 mb 0.07 in1.8 mm 0.00 in0.0 mm 0.22 in5.6 mm
07:00 PM 54.0°F12.2°C 51.4°F10.8°C 91% 1.6 mph ENE2.6 kmh ENE 5.4 mph8.7 kmh 29.69 in1005.4 mb 0.06 in1.5 mm 0.00 in0.0 mm 0.22 in5.6 mm
07:10 PM 54.0°F12.2°C 51.4°F10.8°C 91% 3.8 mph E6.1 kmh E 6.0 mph9.7 kmh 29.69 in1005.4 mb 0.06 in1.5 mm 0.00 in0.0 mm 0.24 in6.1 mm
07:20 PM 53.8°F12.1°C 51.2°F10.7°C 91% 4.5 mph E7.2 kmh E 7.6 mph12.2 kmh 29.69 in1005.4 mb 0.05 in1.3 mm 0.00 in0.0 mm 0.24 in6.1 mm
07:30 PM 53.8°F12.1°C 51.2°F10.7°C 91% 2.2 mph ENE3.5 kmh ENE 6.9 mph11.1 kmh 29.69 in1005.4 mb 0.02 in0.5 mm 0.00 in0.0 mm 0.24 in6.1 mm
07:40 PM 53.6°F12.0°C 51.0°F10.6°C 91% 1.6 mph E2.6 kmh E 6.0 mph9.7 kmh 29.69 in1005.4 mb 0.02 in0.5 mm 0.00 in0.0 mm 0.24 in6.1 mm
07:50 PM 53.4°F11.9°C 50.9°F10.5°C 91% 1.6 mph E2.6 kmh E 3.8 mph6.1 kmh 29.70 in1005.8 mb 0.01 in0.3 mm 0.00 in0.0 mm 0.24 in6.1 mm
08:00 PM 53.2°F11.8°C 50.7°F10.4°C 91% 2.2 mph E3.5 kmh E 4.5 mph7.2 kmh 29.70 in1005.8 mb 0.02 in0.5 mm 0.01 in0.3 mm 0.25 in6.4 mm
08:10 PM 53.1°F11.7°C 50.5°F10.3°C 91% 2.2 mph E3.5 kmh E 4.5 mph7.2 kmh 29.70 in1005.8 mb 0.01 in0.3 mm 0.00 in0.0 mm 0.25 in6.4 mm
08:20 PM 53.1°F11.7°C 50.5°F10.3°C 91% 2.2 mph E3.5 kmh E 3.8 mph6.1 kmh 29.70 in1005.8 mb 0.02 in0.5 mm 0.06 in1.5 mm 0.26 in6.6 mm
08:30 PM 52.9°F11.6°C 50.3°F10.2°C 91% 2.2 mph E3.5 kmh E 4.5 mph7.2 kmh 29.70 in1005.8 mb 0.02 in0.5 mm 0.00 in0.0 mm 0.26 in6.6 mm
08:40 PM 52.9°F11.6°C 50.3°F10.2°C 91% 2.2 mph ENE3.5 kmh ENE 3.8 mph6.1 kmh 29.70 in1005.8 mb 0.02 in0.5 mm 0.00 in0.0 mm 0.26 in6.6 mm
08:50 PM 52.9°F11.6°C 50.3°F10.2°C 91% 3.1 mph E5.0 kmh E 4.5 mph7.2 kmh 29.70 in1005.8 mb 0.02 in0.5 mm 0.00 in0.0 mm 0.27 in6.9 mm
09:00 PM 52.9°F11.6°C 50.3°F10.2°C 91% 3.1 mph ENE5.0 kmh ENE 6.0 mph9.7 kmh 29.70 in1005.8 mb 0.02 in0.5 mm 0.00 in0.0 mm 0.27 in6.9 mm
09:10 PM 52.9°F11.6°C 50.6°F10.3°C 92% 3.1 mph E5.0 kmh E 4.5 mph7.2 kmh 29.71 in1006.1 mb 0.04 in1.0 mm 0.12 in3.0 mm 0.28 in7.1 mm
09:20 PM 52.9°F11.6°C 50.6°F10.3°C 92% 3.1 mph ENE5.0 kmh ENE 4.5 mph7.2 kmh 29.70 in1005.8 mb 0.02 in0.5 mm 0.00 in0.0 mm 0.28 in7.1 mm
09:30 PM 52.9°F11.6°C 50.6°F10.3°C 92% 1.6 mph ENE2.6 kmh ENE 4.5 mph7.2 kmh 29.70 in1005.8 mb 0.02 in0.5 mm 0.00 in0.0 mm 0.28 in7.1 mm
09:40 PM 52.9°F11.6°C 50.6°F10.3°C 92% 2.2 mph E3.5 kmh E 3.8 mph6.1 kmh 29.70 in1005.8 mb 0.04 in1.0 mm 0.12 in3.0 mm 0.30 in7.6 mm
09:50 PM 52.9°F11.6°C 50.6°F10.3°C 92% 0.7 mph E1.1 kmh E 3.8 mph6.1 kmh 29.71 in1006.1 mb 0.04 in1.0 mm 0.00 in0.0 mm 0.31 in7.9 mm
10:00 PM 52.9°F11.6°C 50.6°F10.3°C 92% 2.2 mph ENE3.5 kmh ENE 3.1 mph5.0 kmh 29.71 in1006.1 mb 0.06 in1.5 mm 0.02 in0.5 mm 0.33 in8.4 mm
10:10 PM 52.9°F11.6°C 50.6°F10.3°C 92% 1.6 mph E2.6 kmh E 3.8 mph6.1 kmh 29.71 in1006.1 mb 0.05 in1.3 mm 0.00 in0.0 mm 0.33 in8.4 mm
10:20 PM 52.9°F11.6°C 50.6°F10.3°C 92% 0.7 mph E1.1 kmh E 3.1 mph5.0 kmh 29.71 in1006.1 mb 0.07 in1.8 mm 0.12 in3.0 mm 0.35 in8.9 mm
10:30 PM 53.1°F11.7°C 50.8°F10.4°C 92% 0.7 mph E1.1 kmh E 1.6 mph2.6 kmh 29.71 in1006.1 mb 0.08 in2.0 mm 0.06 in1.5 mm 0.37 in9.4 mm
10:40 PM 53.2°F11.8°C 51.0°F10.6°C 92% 1.6 mph E2.6 kmh E 2.2 mph3.5 kmh 29.72 in1006.4 mb 0.09 in2.3 mm 0.06 in1.5 mm 0.39 in9.9 mm
10:50 PM 53.4°F11.9°C 51.2°F10.7°C 92% 0.7 mph NE1.1 kmh NE 2.2 mph3.5 kmh 29.72 in1006.4 mb 0.09 in2.3 mm 0.00 in0.0 mm 0.40 in10.2 mm
11:00 PM 53.4°F11.9°C 51.2°F10.7°C 92% Calm Calm 1.6 mph2.6 kmh 29.72 in1006.4 mb 0.08 in2.0 mm 0.00 in0.0 mm 0.25 in6.4 mm
11:10 PM 53.6°F12.0°C 51.3°F10.7°C 92% Calm Calm 0.7 mph1.1 kmh 29.71 in1006.1 mb 0.09 in2.3 mm 0.06 in1.5 mm 0.01 in0.3 mm
11:20 PM 53.8°F12.1°C 51.5°F10.8°C 92% 1.6 mph ENE2.6 kmh ENE 2.2 mph3.5 kmh 29.72 in1006.4 mb 0.08 in2.0 mm 0.00 in0.0 mm 0.02 in0.5 mm
11:30 PM 54.0°F12.2°C 52.0°F11.1°C 93% 0.7 mph SW1.1 kmh SW 3.8 mph6.1 kmh 29.73 in1006.8 mb 0.07 in1.8 mm 0.00 in0.0 mm 0.04 in1.0 mm
11:40 PM 54.1°F12.3°C 52.2°F11.2°C 93% 0.7 mph N1.1 kmh N 6.0 mph9.7 kmh 29.73 in1006.8 mb 0.07 in1.8 mm 0.00 in0.0 mm 0.05 in1.3 mm
11:50 PM 54.3°F12.4°C 52.3°F11.3°C 93% 1.6 mph NE2.6 kmh NE 6.0 mph9.7 kmh 29.72 in1006.4 mb 0.07 in1.8 mm 0.00 in0.0 mm 0.06 in1.5 mm